Time;durP1;ratioP1;P1;durP2;ratioP2;P2;SDS_P1;SDS_P2;PMS_P1;PMS_P2;Temp;Humidity;BMP_temperature;BMP_pressure;BME280_temperature;BME280_humidity;BME280_pressure;Samples;Min_cycle;Max_cycle;Signal;HPM_P1;HPM_P2
2021/11/25 00:01:50;;;;;;;48.5;33.0;;;;;;;3.3;82.9;101190;;;;
2021/11/25 00:03:49;;;;;;;48.5;33.0;;;;;;;3.1;83.1;101180;;;;
2021/11/25 00:07:49;;;;;;;48.5;33.0;;;;;;;3.2;83.4;101180;;;;
2021/11/25 00:19:49;;;;;;;48.0;32.5;;;;;;;3.1;82.5;101170;;;;
2021/11/25 00:21:49;;;;;;;48.0;32.5;;;;;;;3.0;82.4;101170;;;;
2021/11/25 00:41:49;;;;;;;46.6;32.0;;;;;;;2.9;82.8;101150;;;;
2021/11/25 00:47:49;;;;;;;46.6;32.0;;;;;;;2.8;82.7;101150;;;;
2021/11/25 00:53:49;;;;;;;46.6;32.0;;;;;;;2.9;82.7;101150;;;;
2021/11/25 00:55:49;;;;;;;45.4;32.6;;;;;;;2.8;82.6;101140;;;;
2021/11/25 00:59:51;;;;;;;45.4;32.6;;;;;;;2.7;82.4;101140;;;;
2021/11/25 01:03:49;;;;;;;45.4;32.6;;;;;;;2.5;82.9;101150;;;;
2021/11/25 01:05:49;;;;;;;45.4;32.6;;;;;;;2.6;83.1;101150;;;;
2021/11/25 01:11:49;;;;;;;45.4;32.6;;;;;;;2.7;83.1;101150;;;;
2021/11/25 01:17:49;;;;;;;48.6;32.3;;;;;;;2.6;83.0;101150;;;;
2021/11/25 01:23:49;;;;;;;48.6;32.3;;;;;;;2.7;83.0;101150;;;;
2021/11/25 01:25:51;;;;;;;48.6;32.3;;;;;;;2.6;83.0;101150;;;;
2021/11/25 01:29:49;;;;;;;48.6;32.3;;;;;;;2.5;83.1;101140;;;;
2021/11/25 01:31:49;;;;;;;48.6;32.3;;;;;;;2.4;82.8;101140;;;;
2021/11/25 01:33:49;;;;;;;48.6;32.3;;;;;;;2.5;83.0;101140;;;;
2021/11/25 01:37:51;;;;;;;44.0;31.2;;;;;;;2.4;82.6;101140;;;;
2021/11/25 01:53:49;;;;;;;41.4;30.2;;;;;;;2.5;83.3;101130;;;;
2021/11/25 01:55:49;;;;;;;41.4;30.2;;;;;;;2.3;83.0;101130;;;;
2021/11/25 01:59:49;;;;;;;41.4;30.2;;;;;;;2.4;83.3;101130;;;;
2021/11/25 02:01:49;;;;;;;41.4;30.2;;;;;;;2.2;83.5;101120;;;;
2021/11/25 02:03:49;;;;;;;41.4;30.2;;;;;;;2.3;83.8;101130;;;;
2021/11/25 02:13:49;;;;;;;41.3;30.3;;;;;;;2.4;82.9;101110;;;;
2021/11/25 02:23:49;;;;;;;41.3;30.3;;;;;;;2.3;83.0;101100;;;;
2021/11/25 02:25:49;;;;;;;41.3;30.3;;;;;;;2.4;83.2;101090;;;;
2021/11/25 02:27:49;;;;;;;41.3;30.3;;;;;;;2.3;83.2;101090;;;;
2021/11/25 02:37:49;;;;;;;36.8;29.7;;;;;;;2.2;82.8;101070;;;;
2021/11/25 02:39:49;;;;;;;36.8;29.7;;;;;;;2.1;82.9;101080;;;;
2021/11/25 02:41:49;;;;;;;36.8;29.7;;;;;;;2.2;83.0;101080;;;;
2021/11/25 02:45:49;;;;;;;36.8;29.7;;;;;;;2.1;83.1;101080;;;;
2021/11/25 02:47:49;;;;;;;36.8;29.7;;;;;;;2.2;82.9;101080;;;;
2021/11/25 02:49:49;;;;;;;36.8;29.7;;;;;;;2.1;82.9;101090;;;;
2021/11/25 02:55:49;;;;;;;41.4;30.1;;;;;;;2.0;83.0;101080;;;;
2021/11/25 03:01:49;;;;;;;41.4;30.1;;;;;;;1.9;82.8;101070;;;;
2021/11/25 03:13:49;;;;;;;41.1;30.3;;;;;;;1.8;82.9;101060;;;;
2021/11/25 03:29:49;;;;;;;41.1;30.3;;;;;;;1.7;83.1;101040;;;;
2021/11/25 03:33:49;;;;;;;44.7;33.6;;;;;;;1.5;83.5;101040;;;;
2021/11/25 03:37:49;;;;;;;44.7;33.6;;;;;;;1.6;83.9;101030;;;;
2021/11/25 03:41:49;;;;;;;44.7;33.6;;;;;;;1.7;84.2;101030;;;;
2021/11/25 03:43:49;;;;;;;44.7;33.6;;;;;;;1.8;84.0;101030;;;;
2021/11/25 03:53:49;;;;;;;47.1;33.4;;;;;;;1.9;83.2;101010;;;;
2021/11/25 03:57:49;;;;;;;47.1;33.4;;;;;;;1.8;82.9;101020;;;;
2021/11/25 04:01:49;;;;;;;47.1;33.4;;;;;;;1.9;83.2;101020;;;;
2021/11/25 04:03:49;;;;;;;47.1;33.4;;;;;;;1.8;83.9;101020;;;;
2021/11/25 04:05:49;;;;;;;47.1;33.4;;;;;;;1.7;84.0;101010;;;;
2021/11/25 04:07:49;;;;;;;47.1;33.4;;;;;;;1.8;84.0;101010;;;;
2021/11/25 04:13:49;;;;;;;40.9;30.8;;;;;;;1.9;83.9;101000;;;;
2021/11/25 04:17:49;;;;;;;40.9;30.8;;;;;;;1.8;84.4;101000;;;;
2021/11/25 04:19:49;;;;;;;40.9;30.8;;;;;;;1.9;84.5;101000;;;;
2021/11/25 04:21:49;;;;;;;40.9;30.8;;;;;;;2.0;83.9;101000;;;;
2021/11/25 04:25:49;;;;;;;40.9;30.8;;;;;;;2.1;83.9;101000;;;;
2021/11/25 04:37:49;;;;;;;39.2;31.3;;;;;;;2.3;83.6;100990;;;;
2021/11/25 04:47:49;;;;;;;39.2;31.3;;;;;;;2.4;83.4;100990;;;;
2021/11/25 04:53:49;;;;;;;42.6;32.6;;;;;;;2.5;83.3;100990;;;;
2021/11/25 04:55:49;;;;;;;42.6;32.6;;;;;;;2.4;83.6;100990;;;;
2021/11/25 04:57:49;;;;;;;42.6;32.6;;;;;;;2.5;83.5;100980;;;;
2021/11/25 05:07:49;;;;;;;42.6;32.6;;;;;;;2.4;82.8;101000;;;;
2021/11/25 05:17:51;;;;;;;39.7;31.8;;;;;;;2.3;83.1;101000;;;;
2021/11/25 05:19:49;;;;;;;39.7;31.8;;;;;;;2.4;83.0;101000;;;;
2021/11/25 05:25:49;;;;;;;39.7;31.8;;;;;;;2.3;83.3;101000;;;;
2021/11/25 05:27:49;;;;;;;39.7;31.8;;;;;;;2.4;83.3;101000;;;;
2021/11/25 05:29:49;;;;;;;39.7;31.8;;;;;;;2.5;83.3;101010;;;;
2021/11/25 05:31:49;;;;;;;39.7;31.8;;;;;;;2.4;83.2;101010;;;;
2021/11/25 05:33:49;;;;;;;43.1;33.6;;;;;;;2.5;83.5;101010;;;;
2021/11/25 05:41:49;;;;;;;43.1;33.6;;;;;;;2.6;83.5;101000;;;;
2021/11/25 05:43:49;;;;;;;43.1;33.6;;;;;;;2.5;83.6;101010;;;;
2021/11/25 05:45:51;;;;;;;43.1;33.6;;;;;;;2.6;83.4;101000;;;;
2021/11/25 05:47:49;;;;;;;43.1;33.6;;;;;;;2.7;83.4;101000;;;;
2021/11/25 05:49:49;;;;;;;43.1;33.6;;;;;;;2.6;83.2;101000;;;;
2021/11/25 05:53:49;;;;;;;43.4;34.1;;;;;;;2.7;83.2;100990;;;;
2021/11/25 05:59:49;;;;;;;43.4;34.1;;;;;;;2.8;83.0;101000;;;;
2021/11/25 06:01:49;;;;;;;43.4;34.1;;;;;;;2.7;82.8;101010;;;;
2021/11/25 06:03:49;;;;;;;43.4;34.1;;;;;;;2.8;82.8;101000;;;;
2021/11/25 06:07:49;;;;;;;43.4;34.1;;;;;;;2.7;83.1;100990;;;;
2021/11/25 06:13:49;;;;;;;43.0;35.8;;;;;;;2.8;83.3;101000;;;;
2021/11/25 06:17:49;;;;;;;43.0;35.8;;;;;;;2.9;83.2;101000;;;;
2021/11/25 06:19:53;;;;;;;43.0;35.8;;;;;;;2.8;83.0;101000;;;;
2021/11/25 06:25:49;;;;;;;43.0;35.8;;;;;;;2.9;83.1;100990;;;;
2021/11/25 06:27:49;;;;;;;43.0;35.8;;;;;;;2.8;83.1;100980;;;;
2021/11/25 06:29:49;;;;;;;43.0;35.8;;;;;;;2.9;83.1;100980;;;;
2021/11/25 06:35:50;;;;;;;45.5;35.7;;;;;;;3.0;82.8;100980;;;;
2021/11/25 06:37:49;;;;;;;45.5;35.7;;;;;;;2.9;82.8;100980;;;;
2021/11/25 06:43:49;;;;;;;45.5;35.7;;;;;;;2.8;83.4;100950;;;;
2021/11/25 06:49:49;;;;;;;45.5;35.7;;;;;;;2.7;84.0;100940;;;;
2021/11/25 06:51:49;;;;;;;45.5;35.7;;;;;;;2.8;84.4;100940;;;;
2021/11/25 06:59:49;;;;;;;49.8;39.3;;;;;;;2.9;83.7;100940;;;;
2021/11/25 07:03:49;;;;;;;49.8;39.3;;;;;;;2.8;83.5;100940;;;;
2021/11/25 07:09:49;;;;;;;49.8;39.3;;;;;;;2.9;83.4;100930;;;;
2021/11/25 07:11:49;;;;;;;49.8;39.3;;;;;;;2.8;83.3;100930;;;;
2021/11/25 07:17:49;;;;;;;49.5;39.6;;;;;;;2.7;83.6;100930;;;;
2021/11/25 07:21:53;;;;;;;49.5;39.6;;;;;;;2.8;83.3;100950;;;;
2021/11/25 07:25:49;;;;;;;49.5;39.6;;;;;;;2.7;83.4;100960;;;;
2021/11/25 07:31:49;;;;;;;49.5;39.6;;;;;;;2.8;83.7;100950;;;;
2021/11/25 07:47:49;;;;;;;50.7;39.0;;;;;;;2.9;83.7;100950;;;;
2021/11/25 07:55:49;;;;;;;49.4;37.4;;;;;;;3.0;83.7;100950;;;;
2021/11/25 08:01:49;;;;;;;49.4;37.4;;;;;;;3.1;83.9;100950;;;;
2021/11/25 08:05:49;;;;;;;49.4;37.4;;;;;;;3.0;83.5;100950;;;;
2021/11/25 08:09:49;;;;;;;49.4;37.4;;;;;;;3.2;84.1;100950;;;;
2021/11/25 08:15:20;;;;;;;44.5;37.6;;;;;;;3.2;83.5;100950;;;;
2021/11/25 08:17:51;;;;;;;44.5;37.6;;;;;;;3.3;84.0;100950;;;;
2021/11/25 08:19:49;;;;;;;44.5;37.6;;;;;;;3.2;84.0;100950;;;;
2021/11/25 08:23:49;;;;;;;44.5;37.6;;;;;;;3.3;83.9;100950;;;;
2021/11/25 08:25:50;;;;;;;44.5;37.6;;;;;;;3.2;83.6;100960;;;;
2021/11/25 08:27:51;;;;;;;44.5;37.6;;;;;;;3.3;83.9;100960;;;;
2021/11/25 08:29:49;;;;;;;44.5;37.6;;;;;;;3.4;84.1;100960;;;;
2021/11/25 08:39:49;;;;;;;44.1;36.0;;;;;;;3.3;83.6;100970;;;;
2021/11/25 08:41:49;;;;;;;44.1;36.0;;;;;;;3.4;83.8;100970;;;;
2021/11/25 08:49:51;;;;;;;44.1;36.0;;;;;;;3.5;83.5;100970;;;;
2021/11/25 09:03:50;;;;;;;38.1;33.3;;;;;;;3.6;83.0;100960;;;;
2021/11/25 09:07:49;;;;;;;38.1;33.3;;;;;;;3.7;83.1;100950;;;;
2021/11/25 09:11:49;;;;;;;35.3;30.9;;;;;;;3.6;83.6;100940;;;;
2021/11/25 09:13:49;;;;;;;35.3;30.9;;;;;;;3.7;83.3;100940;;;;
2021/11/25 09:17:57;;;;;;;35.3;30.9;;;;;;;3.6;83.6;100950;;;;
2021/11/25 09:21:49;;;;;;;35.3;30.9;;;;;;;3.7;83.8;100940;;;;
2021/11/25 09:23:49;;;;;;;35.3;30.9;;;;;;;3.8;83.7;100940;;;;
2021/11/25 09:25:50;;;;;;;35.3;30.9;;;;;;;3.9;83.8;100940;;;;
2021/11/25 09:27:49;;;;;;;35.3;30.9;;;;;;;3.8;83.5;100950;;;;
2021/11/25 09:31:49;;;;;;;35.4;31.1;;;;;;;3.9;83.6;100950;;;;
2021/11/25 09:35:49;;;;;;;35.4;31.1;;;;;;;4.0;83.8;100950;;;;
2021/11/25 09:39:49;;;;;;;35.4;31.1;;;;;;;3.9;83.4;100950;;;;
2021/11/25 09:43:49;;;;;;;35.4;31.1;;;;;;;4.1;83.6;100940;;;;
2021/11/25 09:45:50;;;;;;;35.4;31.1;;;;;;;4.0;83.7;100940;;;;
2021/11/25 09:47:49;;;;;;;35.4;31.1;;;;;;;4.1;83.4;100940;;;;
2021/11/25 09:51:49;;;;;;;38.5;33.2;;;;;;;4.3;83.5;100940;;;;
2021/11/25 09:53:49;;;;;;;38.5;33.2;;;;;;;4.2;83.3;100940;;;;
2021/11/25 09:55:50;;;;;;;38.5;33.2;;;;;;;4.1;83.5;100950;;;;
2021/11/25 09:57:51;;;;;;;38.5;33.2;;;;;;;4.0;84.0;100950;;;;
2021/11/25 09:59:49;;;;;;;38.5;33.2;;;;;;;4.1;83.5;100950;;;;
2021/11/25 10:01:49;;;;;;;38.5;33.2;;;;;;;4.2;83.3;100940;;;;
2021/11/25 10:03:50;;;;;;;38.5;33.2;;;;;;;4.1;83.3;100940;;;;
2021/11/25 10:05:49;;;;;;;38.5;33.2;;;;;;;4.2;83.4;100940;;;;
2021/11/25 10:13:54;;;;;;;35.9;31.5;;;;;;;4.3;84.3;100950;;;;
2021/11/25 10:19:49;;;;;;;35.9;31.5;;;;;;;4.2;84.0;100950;;;;
2021/11/25 10:21:53;;;;;;;35.9;31.5;;;;;;;4.3;84.3;100950;;;;
2021/11/25 10:45:50;;;;;;;41.5;35.2;;;;;;;4.2;85.2;100950;;;;
2021/11/25 10:47:49;;;;;;;41.5;35.2;;;;;;;4.3;85.4;100940;;;;
2021/11/25 10:51:49;;;;;;;42.8;37.1;;;;;;;4.4;85.7;100940;;;;
2021/11/25 10:55:49;;;;;;;42.8;37.1;;;;;;;4.5;85.5;100930;;;;
2021/11/25 10:59:49;;;;;;;42.8;37.1;;;;;;;4.6;86.2;100930;;;;
2021/11/25 11:01:49;;;;;;;42.8;37.1;;;;;;;4.4;85.9;100930;;;;
2021/11/25 11:03:49;;;;;;;42.8;37.1;;;;;;;4.5;85.8;100930;;;;
2021/11/25 11:09:49;;;;;;;42.8;37.1;;;;;;;4.6;86.0;100940;;;;
2021/11/25 11:15:54;;;;;;;55.2;44.3;;;;;;;4.7;85.9;100930;;;;
2021/11/25 11:21:50;;;;;;;55.2;44.3;;;;;;;4.8;86.6;100930;;;;
2021/11/25 11:23:49;;;;;;;55.2;44.3;;;;;;;4.9;86.5;100920;;;;
2021/11/25 11:27:49;;;;;;;55.2;44.3;;;;;;;4.8;86.2;100920;;;;
2021/11/25 11:29:50;;;;;;;55.2;44.3;;;;;;;4.9;85.9;100930;;;;
2021/11/25 11:31:49;;;;;;;64.6;47.8;;;;;;;5.0;86.2;100930;;;;
2021/11/25 11:35:49;;;;;;;64.6;47.8;;;;;;;4.9;86.8;100920;;;;
2021/11/25 11:37:49;;;;;;;64.6;47.8;;;;;;;5.1;86.6;100920;;;;
2021/11/25 11:43:49;;;;;;;64.6;47.8;;;;;;;5.2;86.7;100920;;;;
2021/11/25 11:45:50;;;;;;;64.6;47.8;;;;;;;5.1;86.8;100920;;;;
2021/11/25 11:47:51;;;;;;;64.6;47.8;;;;;;;5.2;86.8;100920;;;;
2021/11/25 11:55:49;;;;;;;81.8;53.2;;;;;;;5.3;87.7;100930;;;;
2021/11/25 11:57:49;;;;;;;81.8;53.2;;;;;;;5.4;87.9;100920;;;;
2021/11/25 12:03:49;;;;;;;81.8;53.2;;;;;;;5.5;87.3;100910;;;;
2021/11/25 12:09:49;;;;;;;81.8;53.2;;;;;;;5.4;86.8;100910;;;;
2021/11/25 12:11:50;;;;;;;81.2;52.5;;;;;;;5.6;87.0;100910;;;;
2021/11/25 12:13:49;;;;;;;81.2;52.5;;;;;;;5.7;87.7;100910;;;;
2021/11/25 12:15:49;;;;;;;81.2;52.5;;;;;;;5.6;87.9;100910;;;;
2021/11/25 12:17:49;;;;;;;81.2;52.5;;;;;;;5.7;88.0;100910;;;;
2021/11/25 12:23:49;;;;;;;81.2;52.5;;;;;;;5.8;88.2;100900;;;;
2021/11/25 12:25:49;;;;;;;81.2;52.5;;;;;;;5.9;88.7;100900;;;;
2021/11/25 12:31:51;;;;;;;87.3;55.5;;;;;;;6.0;87.6;100900;;;;
2021/11/25 12:35:49;;;;;;;87.3;55.5;;;;;;;6.1;88.2;100900;;;;
2021/11/25 12:41:49;;;;;;;87.3;55.5;;;;;;;6.2;88.3;100900;;;;
2021/11/25 12:49:49;;;;;;;87.3;55.5;;;;;;;6.3;88.2;100880;;;;
2021/11/25 12:53:49;;;;;;;88.2;56.5;;;;;;;6.4;88.3;100870;;;;
2021/11/25 12:57:49;;;;;;;88.2;56.5;;;;;;;6.5;89.1;100870;;;;
2021/11/25 13:03:49;;;;;;;88.2;56.5;;;;;;;6.4;87.9;100860;;;;
2021/11/25 13:09:49;;;;;;;88.2;56.5;;;;;;;6.5;87.7;100850;;;;
2021/11/25 13:11:49;;;;;;;86.2;53.6;;;;;;;6.4;88.6;100840;;;;
2021/11/25 13:13:50;;;;;;;86.2;53.6;;;;;;;6.5;88.5;100850;;;;
2021/11/25 13:23:49;;;;;;;86.2;53.6;;;;;;;6.6;89.2;100840;;;;
2021/11/25 13:29:51;;;;;;;86.2;53.6;;;;;;;6.7;88.0;100830;;;;
2021/11/25 13:33:49;;;;;;;81.5;52.2;;;;;;;6.5;87.7;100830;;;;
2021/11/25 13:35:49;;;;;;;81.5;52.2;;;;;;;6.6;89.1;100830;;;;
2021/11/25 13:37:52;;;;;;;81.5;52.2;;;;;;;6.7;89.0;100820;;;;
2021/11/25 13:41:49;;;;;;;81.5;52.2;;;;;;;6.8;88.2;100820;;;;
2021/11/25 13:49:54;;;;;;;81.5;52.2;;;;;;;6.9;88.9;100810;;;;
2021/11/25 13:57:49;;;;;;;80.9;54.1;;;;;;;6.8;88.8;100820;;;;
2021/11/25 13:59:49;;;;;;;80.9;54.1;;;;;;;6.9;89.2;100820;;;;
2021/11/25 14:01:49;;;;;;;80.9;54.1;;;;;;;6.8;89.4;100810;;;;
2021/11/25 14:05:50;;;;;;;80.9;54.1;;;;;;;6.9;89.4;100810;;;;
2021/11/25 14:09:49;;;;;;;80.9;54.1;;;;;;;6.8;89.4;100810;;;;
2021/11/25 14:11:49;;;;;;;85.0;55.8;;;;;;;7.0;89.4;100800;;;;
2021/11/25 14:23:49;;;;;;;85.0;55.8;;;;;;;6.9;89.0;100810;;;;
2021/11/25 14:33:49;;;;;;;86.3;54.9;;;;;;;6.8;89.0;100810;;;;
2021/11/25 14:41:52;;;;;;;86.3;54.9;;;;;;;6.7;88.4;100820;;;;
2021/11/25 14:45:49;;;;;;;86.3;54.9;;;;;;;6.6;88.3;100820;;;;
2021/11/25 14:51:49;;;;;;;85.9;53.6;;;;;;;6.5;88.2;100820;;;;
2021/11/25 14:55:49;;;;;;;85.9;53.6;;;;;;;6.4;88.1;100810;;;;
2021/11/25 14:57:49;;;;;;;85.9;53.6;;;;;;;6.3;88.2;100820;;;;
2021/11/25 14:59:49;;;;;;;85.9;53.6;;;;;;;6.2;88.4;100810;;;;
2021/11/25 15:03:49;;;;;;;85.9;53.6;;;;;;;6.1;88.4;100820;;;;
2021/11/25 15:09:49;;;;;;;85.9;53.6;;;;;;;6.0;88.7;100820;;;;
2021/11/25 15:13:49;;;;;;;92.0;54.6;;;;;;;6.1;88.8;100810;;;;
2021/11/25 15:15:50;;;;;;;92.0;54.6;;;;;;;6.0;88.6;100810;;;;
2021/11/25 15:21:49;;;;;;;92.0;54.6;;;;;;;5.9;88.4;100800;;;;
2021/11/25 15:23:52;;;;;;;92.0;54.6;;;;;;;5.8;88.4;100800;;;;
2021/11/25 15:29:52;;;;;;;92.0;54.6;;;;;;;5.7;88.5;100800;;;;
2021/11/25 15:35:52;;;;;;;99.9;60.0;;;;;;;5.6;88.0;100800;;;;
2021/11/25 15:41:49;;;;;;;99.9;60.0;;;;;;;5.5;87.5;100800;;;;
2021/11/25 15:45:51;;;;;;;99.9;60.0;;;;;;;5.4;87.3;100800;;;;
2021/11/25 15:47:50;;;;;;;99.9;60.0;;;;;;;5.3;87.1;100810;;;;
2021/11/25 15:53:49;;;;;;;98.3;51.2;;;;;;;5.2;86.9;100820;;;;
2021/11/25 15:59:49;;;;;;;98.3;51.2;;;;;;;5.1;86.5;100810;;;;
2021/11/25 16:01:49;;;;;;;98.3;51.2;;;;;;;5.0;86.6;100810;;;;
2021/11/25 16:15:50;;;;;;;83.2;50.1;;;;;;;4.9;86.7;100820;;;;
2021/11/25 16:21:49;;;;;;;83.2;50.1;;;;;;;4.8;86.4;100830;;;;
2021/11/25 16:27:49;;;;;;;83.2;50.1;;;;;;;4.7;86.7;100830;;;;
2021/11/25 16:53:51;;;;;;;52.4;34.6;;;;;;;4.8;87.9;100840;;;;
2021/11/25 16:57:49;;;;;;;52.4;34.6;;;;;;;4.9;87.4;100850;;;;
2021/11/25 17:01:49;;;;;;;52.4;34.6;;;;;;;5.1;87.1;100850;;;;
2021/11/25 17:15:49;;;;;;;23.4;8.4;;;;;;;5.2;87.5;100850;;;;
2021/11/25 17:27:49;;;;;;;23.4;8.4;;;;;;;5.1;87.1;100830;;;;
2021/11/25 17:29:49;;;;;;;13.2;8.1;;;;;;;5.2;86.9;100830;;;;
2021/11/25 17:31:49;;;;;;;13.2;8.1;;;;;;;5.1;87.0;100830;;;;
2021/11/25 17:33:49;;;;;;;13.2;8.1;;;;;;;5.0;87.0;100820;;;;
2021/11/25 17:39:49;;;;;;;13.2;8.1;;;;;;;4.9;86.6;100830;;;;
2021/11/25 17:43:49;;;;;;;13.2;8.1;;;;;;;4.8;86.3;100830;;;;
2021/11/25 17:51:49;;;;;;;13.4;8.6;;;;;;;4.7;86.0;100830;;;;
2021/11/25 17:53:49;;;;;;;13.4;8.6;;;;;;;4.6;85.9;100830;;;;
2021/11/25 17:55:49;;;;;;;13.4;8.6;;;;;;;4.5;85.9;100830;;;;
2021/11/25 18:01:49;;;;;;;13.4;8.6;;;;;;;4.4;85.8;100830;;;;
2021/11/25 18:05:49;;;;;;;13.4;8.6;;;;;;;4.3;85.6;100830;;;;
2021/11/25 18:09:49;;;;;;;18.2;9.2;;;;;;;4.2;85.7;100820;;;;
2021/11/25 18:17:49;;;;;;;18.2;9.2;;;;;;;4.1;85.6;100820;;;;
2021/11/25 18:21:49;;;;;;;18.2;9.2;;;;;;;4.0;85.5;100830;;;;
2021/11/25 18:27:49;;;;;;;18.2;9.2;;;;;;;3.9;85.7;100830;;;;
2021/11/25 18:31:50;;;;;;;17.7;10.3;;;;;;;3.8;85.4;100820;;;;
2021/11/25 18:37:49;;;;;;;17.7;10.3;;;;;;;3.7;85.6;100820;;;;
2021/11/25 18:43:49;;;;;;;17.7;10.3;;;;;;;3.6;85.7;100810;;;;
2021/11/25 18:45:49;;;;;;;17.7;10.3;;;;;;;3.5;85.8;100810;;;;
2021/11/25 18:47:49;;;;;;;17.7;10.3;;;;;;;3.6;86.0;100810;;;;
2021/11/25 18:51:51;;;;;;;15.1;10.0;;;;;;;3.5;85.4;100810;;;;
2021/11/25 18:59:49;;;;;;;15.1;10.0;;;;;;;3.4;85.4;100820;;;;
2021/11/25 19:05:49;;;;;;;15.1;10.0;;;;;;;3.3;85.5;100820;;;;
2021/11/25 19:09:50;;;;;;;17.5;10.6;;;;;;;3.4;85.4;100810;;;;
2021/11/25 19:11:50;;;;;;;17.5;10.6;;;;;;;3.3;85.3;100810;;;;
2021/11/25 19:15:49;;;;;;;17.5;10.6;;;;;;;3.1;85.8;100810;;;;
2021/11/25 19:17:49;;;;;;;17.5;10.6;;;;;;;3.2;85.7;100810;;;;
2021/11/25 19:21:49;;;;;;;17.5;10.6;;;;;;;3.1;85.4;100810;;;;
2021/11/25 19:27:49;;;;;;;17.5;10.6;;;;;;;3.0;85.6;100800;;;;
2021/11/25 19:29:49;;;;;;;17.5;14.0;;;;;;;3.2;85.5;100800;;;;
2021/11/25 19:31:58;;;;;;;17.5;14.0;;;;;;;3.1;85.4;100800;;;;
2021/11/25 19:33:49;;;;;;;17.5;14.0;;;;;;;3.0;85.6;100790;;;;
2021/11/25 19:37:49;;;;;;;17.5;14.0;;;;;;;2.9;85.5;100790;;;;
2021/11/25 19:39:49;;;;;;;17.5;14.0;;;;;;;3.0;85.8;100790;;;;
2021/11/25 19:45:50;;;;;;;17.5;14.0;;;;;;;2.9;85.6;100790;;;;
2021/11/25 19:49:49;;;;;;;16.5;10.2;;;;;;;2.8;85.7;100790;;;;
2021/11/25 19:51:49;;;;;;;16.5;10.2;;;;;;;2.9;85.7;100790;;;;
2021/11/25 19:55:49;;;;;;;16.5;10.2;;;;;;;2.8;85.5;100790;;;;
2021/11/25 20:29:49;;;;;;;22.5;12.7;;;;;;;2.9;85.4;100760;;;;
2021/11/25 20:31:49;;;;;;;22.5;12.7;;;;;;;2.8;85.4;100750;;;;
2021/11/25 20:33:49;;;;;;;22.5;12.7;;;;;;;2.7;85.8;100750;;;;
2021/11/25 20:41:50;;;;;;;22.5;12.7;;;;;;;2.6;85.6;100740;;;;
2021/11/25 20:43:49;;;;;;;22.5;12.7;;;;;;;2.7;85.7;100730;;;;
2021/11/25 20:47:55;;;;;;;22.5;12.7;;;;;;;2.6;85.8;100740;;;;
2021/11/25 20:49:49;;;;;;;17.4;12.4;;;;;;;2.7;85.5;100740;;;;
2021/11/25 20:53:49;;;;;;;17.4;12.4;;;;;;;2.6;85.5;100740;;;;
2021/11/25 20:55:49;;;;;;;17.4;12.4;;;;;;;2.5;85.8;100740;;;;
2021/11/25 20:59:49;;;;;;;17.4;12.4;;;;;;;2.6;86.0;100740;;;;
2021/11/25 21:01:49;;;;;;;17.4;12.4;;;;;;;2.7;86.4;100750;;;;
2021/11/25 21:03:50;;;;;;;17.4;12.4;;;;;;;2.6;86.3;100750;;;;
2021/11/25 21:05:49;;;;;;;17.4;12.4;;;;;;;2.7;86.4;100740;;;;
2021/11/25 21:09:49;;;;;;;29.0;19.4;;;;;;;2.8;86.3;100730;;;;
2021/11/25 21:11:49;;;;;;;29.0;19.4;;;;;;;2.9;86.3;100730;;;;
2021/11/25 21:15:49;;;;;;;29.0;19.4;;;;;;;3.0;86.4;100720;;;;
2021/11/25 21:23:49;;;;;;;29.0;19.4;;;;;;;3.1;87.1;100710;;;;
2021/11/25 21:29:49;;;;;;;20.6;13.1;;;;;;;3.2;86.9;100700;;;;
2021/11/25 21:35:49;;;;;;;20.6;13.1;;;;;;;3.3;86.6;100690;;;;
2021/11/25 21:41:49;;;;;;;20.6;13.1;;;;;;;3.2;86.7;100670;;;;
2021/11/25 21:51:49;;;;;;;14.2;9.3;;;;;;;3.1;86.2;100650;;;;
2021/11/25 21:55:49;;;;;;;14.2;9.3;;;;;;;3.0;86.0;100650;;;;
2021/11/25 21:57:49;;;;;;;14.2;9.3;;;;;;;3.1;85.9;100640;;;;
2021/11/25 21:59:49;;;;;;;14.2;9.3;;;;;;;3.0;86.0;100640;;;;
2021/11/25 22:01:49;;;;;;;14.2;9.3;;;;;;;2.9;86.1;100640;;;;
2021/11/25 22:07:49;;;;;;;14.2;9.3;;;;;;;2.8;86.2;100640;;;;
2021/11/25 22:15:49;;;;;;;16.9;10.6;;;;;;;2.7;85.8;100620;;;;
2021/11/25 22:25:49;;;;;;;16.9;10.6;;;;;;;2.6;86.2;100620;;;;
2021/11/25 22:27:49;;;;;;;16.9;10.6;;;;;;;2.5;86.1;100620;;;;
2021/11/25 22:43:49;;;;;;;19.8;10.8;;;;;;;2.4;86.0;100590;;;;
2021/11/25 22:49:49;;;;;;;19.2;11.0;;;;;;;2.3;85.7;100580;;;;
2021/11/25 22:51:49;;;;;;;19.2;11.0;;;;;;;2.2;85.9;100580;;;;
2021/11/25 23:15:49;;;;;;;15.4;10.4;;;;;;;2.1;85.8;100580;;;;
2021/11/25 23:25:50;;;;;;;15.4;10.4;;;;;;;2.0;86.0;100570;;;;
2021/11/25 23:27:49;;;;;;;15.4;10.4;;;;;;;2.2;86.3;100570;;;;
2021/11/25 23:29:49;;;;;;;17.6;10.6;;;;;;;2.1;86.4;100560;;;;
2021/11/25 23:39:52;;;;;;;17.6;10.6;;;;;;;2.2;86.8;100550;;;;
2021/11/25 23:41:49;;;;;;;17.6;10.6;;;;;;;2.1;86.9;100540;;;;
2021/11/25 23:43:49;;;;;;;17.6;10.6;;;;;;;2.2;87.0;100540;;;;
2021/11/25 23:45:54;;;;;;;17.6;10.6;;;;;;;2.3;86.8;100530;;;;
2021/11/25 23:51:51;;;;;;;17.6;10.4;;;;;;;2.2;87.0;100520;;;;
2021/11/25 23:53:49;;;;;;;17.6;10.4;;;;;;;2.3;87.0;100520;;;;
2021/11/25 23:59:50;;;;;;;17.6;10.4;;;;;;;2.4;87.4;100520;;;;
